sensor_id;sensor_type;location;lat;lon;timestamp;P1;durP1;ratioP1;P2;durP2;ratioP2
52450;SDS011;38366;53.176;6.540;2023-04-24T00:01:47;5.30;;;3.60;;
52450;SDS011;38366;53.176;6.540;2023-04-24T00:04:13;5.35;;;3.50;;
52450;SDS011;38366;53.176;6.540;2023-04-24T00:06:41;6.35;;;3.47;;
52450;SDS011;38366;53.176;6.540;2023-04-24T00:09:08;7.78;;;3.72;;
52450;SDS011;38366;53.176;6.540;2023-04-24T00:11:35;6.47;;;3.45;;
52450;SDS011;38366;53.176;6.540;2023-04-24T00:14:01;5.18;;;3.35;;
52450;SDS011;38366;53.176;6.540;2023-04-24T00:16:27;5.45;;;3.35;;
52450;SDS011;38366;53.176;6.540;2023-04-24T00:18:53;4.30;;;2.97;;
52450;SDS011;38366;53.176;6.540;2023-04-24T00:21:19;5.50;;;3.03;;
52450;SDS011;38366;53.176;6.540;2023-04-24T00:23:46;4.72;;;3.40;;
52450;SDS011;38366;53.176;6.540;2023-04-24T00:26:13;5.22;;;3.00;;
52450;SDS011;38366;53.176;6.540;2023-04-24T00:28:39;5.93;;;3.17;;
52450;SDS011;38366;53.176;6.540;2023-04-24T00:31:04;4.43;;;2.53;;
52450;SDS011;38366;53.176;6.540;2023-04-24T00:33:30;2.65;;;2.15;;
52450;SDS011;38366;53.176;6.540;2023-04-24T00:35:56;2.40;;;1.50;;
52450;SDS011;38366;53.176;6.540;2023-04-24T00:38:21;2.00;;;1.60;;
52450;SDS011;38366;53.176;6.540;2023-04-24T00:40:47;1.90;;;1.27;;
52450;SDS011;38366;53.176;6.540;2023-04-24T00:43:15;1.15;;;0.80;;
52450;SDS011;38366;53.176;6.540;2023-04-24T00:48:07;1.42;;;0.82;;
52450;SDS011;38366;53.176;6.540;2023-04-24T00:50:32;2.17;;;0.82;;
52450;SDS011;38366;53.176;6.540;2023-04-24T00:53:00;1.95;;;0.82;;
52450;SDS011;38366;53.176;6.540;2023-04-24T00:55:26;1.23;;;0.80;;
52450;SDS011;38366;53.176;6.540;2023-04-24T00:57:52;1.20;;;0.80;;
52450;SDS011;38366;53.176;6.540;2023-04-24T01:00:18;2.08;;;0.70;;
52450;SDS011;38366;53.176;6.540;2023-04-24T01:05:11;1.20;;;0.80;;
52450;SDS011;38366;53.176;6.540;2023-04-24T01:07:38;1.15;;;0.90;;
52450;SDS011;38366;53.176;6.540;2023-04-24T01:10:06;2.92;;;0.80;;
52450;SDS011;38366;53.176;6.540;2023-04-24T01:12:33;1.20;;;0.90;;
52450;SDS011;38366;53.176;6.540;2023-04-24T01:14:59;1.10;;;0.80;;
52450;SDS011;38366;53.176;6.540;2023-04-24T01:17:24;0.82;;;0.70;;
52450;SDS011;38366;53.176;6.540;2023-04-24T01:19:50;1.23;;;0.75;;
52450;SDS011;38366;53.176;6.540;2023-04-24T01:22:18;0.77;;;0.70;;
52450;SDS011;38366;53.176;6.540;2023-04-24T01:24:45;1.20;;;1.00;;
52450;SDS011;38366;53.176;6.540;2023-04-24T01:27:11;0.70;;;0.63;;
52450;SDS011;38366;53.176;6.540;2023-04-24T01:29:37;1.52;;;1.00;;
52450;SDS011;38366;53.176;6.540;2023-04-24T01:32:04;2.47;;;1.10;;
52450;SDS011;38366;53.176;6.540;2023-04-24T01:34:30;1.30;;;1.00;;
52450;SDS011;38366;53.176;6.540;2023-04-24T01:36:56;1.40;;;1.00;;
52450;SDS011;38366;53.176;6.540;2023-04-24T01:39:22;1.40;;;1.02;;
52450;SDS011;38366;53.176;6.540;2023-04-24T01:41:50;1.58;;;1.10;;
52450;SDS011;38366;53.176;6.540;2023-04-24T01:44:17;2.13;;;1.42;;
52450;SDS011;38366;53.176;6.540;2023-04-24T01:46:43;1.48;;;1.38;;
52450;SDS011;38366;53.176;6.540;2023-04-24T01:49:09;1.35;;;0.98;;
52450;SDS011;38366;53.176;6.540;2023-04-24T01:51:35;1.77;;;1.23;;
52450;SDS011;38366;53.176;6.540;2023-04-24T01:54:00;1.70;;;1.30;;
52450;SDS011;38366;53.176;6.540;2023-04-24T01:56:27;3.60;;;1.70;;
52450;SDS011;38366;53.176;6.540;2023-04-24T01:58:54;3.70;;;1.60;;
52450;SDS011;38366;53.176;6.540;2023-04-24T02:01:21;1.60;;;1.30;;
52450;SDS011;38366;53.176;6.540;2023-04-24T02:03:49;2.25;;;1.60;;
52450;SDS011;38366;53.176;6.540;2023-04-24T02:06:14;4.50;;;2.00;;
52450;SDS011;38366;53.176;6.540;2023-04-24T02:08:40;3.83;;;1.67;;
52450;SDS011;38366;53.176;6.540;2023-04-24T02:11:06;3.05;;;2.25;;
52450;SDS011;38366;53.176;6.540;2023-04-24T02:13:33;2.25;;;1.77;;
52450;SDS011;38366;53.176;6.540;2023-04-24T02:15:59;2.27;;;1.70;;
52450;SDS011;38366;53.176;6.540;2023-04-24T02:18:24;3.33;;;2.28;;
52450;SDS011;38366;53.176;6.540;2023-04-24T02:20:50;3.33;;;2.28;;
52450;SDS011;38366;53.176;6.540;2023-04-24T02:23:16;5.18;;;2.42;;
52450;SDS011;38366;53.176;6.540;2023-04-24T02:25:41;3.03;;;2.33;;
52450;SDS011;38366;53.176;6.540;2023-04-24T02:28:07;2.83;;;2.23;;
52450;SDS011;38366;53.176;6.540;2023-04-24T02:30:32;4.03;;;3.10;;
52450;SDS011;38366;53.176;6.540;2023-04-24T02:32:58;3.72;;;2.78;;
52450;SDS011;38366;53.176;6.540;2023-04-24T02:35:24;5.38;;;2.80;;
52450;SDS011;38366;53.176;6.540;2023-04-24T02:37:50;4.60;;;3.00;;
52450;SDS011;38366;53.176;6.540;2023-04-24T02:40:16;4.13;;;2.60;;
52450;SDS011;38366;53.176;6.540;2023-04-24T02:42:41;5.03;;;3.45;;
52450;SDS011;38366;53.176;6.540;2023-04-24T02:45:07;4.72;;;3.20;;
52450;SDS011;38366;53.176;6.540;2023-04-24T02:47:33;3.30;;;2.53;;
52450;SDS011;38366;53.176;6.540;2023-04-24T02:49:59;3.85;;;2.70;;
52450;SDS011;38366;53.176;6.540;2023-04-24T02:52:24;4.20;;;3.20;;
52450;SDS011;38366;53.176;6.540;2023-04-24T02:54:50;4.35;;;3.03;;
52450;SDS011;38366;53.176;6.540;2023-04-24T02:57:16;5.40;;;3.30;;
52450;SDS011;38366;53.176;6.540;2023-04-24T02:59:41;5.37;;;3.20;;
52450;SDS011;38366;53.176;6.540;2023-04-24T03:02:07;5.45;;;3.67;;
52450;SDS011;38366;53.176;6.540;2023-04-24T03:04:33;6.30;;;3.70;;
52450;SDS011;38366;53.176;6.540;2023-04-24T03:06:59;5.57;;;3.38;;
52450;SDS011;38366;53.176;6.540;2023-04-24T03:09:26;4.85;;;3.13;;
52450;SDS011;38366;53.176;6.540;2023-04-24T03:11:51;6.33;;;4.00;;
52450;SDS011;38366;53.176;6.540;2023-04-24T03:14:17;7.40;;;4.20;;
52450;SDS011;38366;53.176;6.540;2023-04-24T03:16:43;6.38;;;4.15;;
52450;SDS011;38366;53.176;6.540;2023-04-24T03:19:08;7.00;;;4.60;;
52450;SDS011;38366;53.176;6.540;2023-04-24T03:21:34;6.97;;;4.25;;
52450;SDS011;38366;53.176;6.540;2023-04-24T03:26:27;7.43;;;4.97;;
52450;SDS011;38366;53.176;6.540;2023-04-24T03:28:52;7.32;;;4.03;;
52450;SDS011;38366;53.176;6.540;2023-04-24T03:31:18;8.35;;;5.13;;
52450;SDS011;38366;53.176;6.540;2023-04-24T03:33:46;9.55;;;5.82;;
52450;SDS011;38366;53.176;6.540;2023-04-24T03:36:11;6.93;;;5.03;;
52450;SDS011;38366;53.176;6.540;2023-04-24T03:38:37;10.00;;;6.45;;
52450;SDS011;38366;53.176;6.540;2023-04-24T03:41:03;13.40;;;7.27;;
52450;SDS011;38366;53.176;6.540;2023-04-24T03:43:28;10.52;;;6.72;;
52450;SDS011;38366;53.176;6.540;2023-04-24T03:45:54;13.02;;;7.75;;
52450;SDS011;38366;53.176;6.540;2023-04-24T03:48:20;7.80;;;4.85;;
52450;SDS011;38366;53.176;6.540;2023-04-24T03:50:46;10.23;;;7.25;;
52450;SDS011;38366;53.176;6.540;2023-04-24T03:53:11;11.55;;;8.02;;
52450;SDS011;38366;53.176;6.540;2023-04-24T03:55:37;9.40;;;6.20;;
52450;SDS011;38366;53.176;6.540;2023-04-24T03:58:03;11.65;;;7.55;;
52450;SDS011;38366;53.176;6.540;2023-04-24T04:00:28;10.37;;;6.60;;
52450;SDS011;38366;53.176;6.540;2023-04-24T04:02:56;11.20;;;7.45;;
52450;SDS011;38366;53.176;6.540;2023-04-24T04:05:22;9.40;;;6.40;;
52450;SDS011;38366;53.176;6.540;2023-04-24T04:07:47;9.57;;;6.50;;
52450;SDS011;38366;53.176;6.540;2023-04-24T04:10:13;12.57;;;7.70;;
52450;SDS011;38366;53.176;6.540;2023-04-24T04:12:39;10.23;;;6.25;;
52450;SDS011;38366;53.176;6.540;2023-04-24T04:15:05;9.90;;;6.63;;
52450;SDS011;38366;53.176;6.540;2023-04-24T04:17:31;9.63;;;6.60;;
52450;SDS011;38366;53.176;6.540;2023-04-24T04:19:57;8.90;;;5.95;;
52450;SDS011;38366;53.176;6.540;2023-04-24T04:22:23;8.90;;;6.43;;
52450;SDS011;38366;53.176;6.540;2023-04-24T04:24:48;9.20;;;6.00;;
52450;SDS011;38366;53.176;6.540;2023-04-24T04:27:16;8.38;;;5.88;;
52450;SDS011;38366;53.176;6.540;2023-04-24T04:29:41;8.43;;;6.50;;
52450;SDS011;38366;53.176;6.540;2023-04-24T04:32:07;8.35;;;5.95;;
52450;SDS011;38366;53.176;6.540;2023-04-24T04:34:33;9.37;;;5.43;;
52450;SDS011;38366;53.176;6.540;2023-04-24T04:36:59;8.80;;;5.53;;
52450;SDS011;38366;53.176;6.540;2023-04-24T04:39:26;8.18;;;5.10;;
52450;SDS011;38366;53.176;6.540;2023-04-24T04:41:53;7.40;;;5.05;;
52450;SDS011;38366;53.176;6.540;2023-04-24T04:44:19;7.60;;;4.93;;
52450;SDS011;38366;53.176;6.540;2023-04-24T04:46:44;7.90;;;4.97;;
52450;SDS011;38366;53.176;6.540;2023-04-24T04:49:11;7.03;;;4.82;;
52450;SDS011;38366;53.176;6.540;2023-04-24T04:51:36;10.93;;;5.22;;
52450;SDS011;38366;53.176;6.540;2023-04-24T04:54:02;8.15;;;5.43;;
52450;SDS011;38366;53.176;6.540;2023-04-24T04:56:28;8.77;;;5.03;;
52450;SDS011;38366;53.176;6.540;2023-04-24T04:58:53;6.13;;;4.37;;
52450;SDS011;38366;53.176;6.540;2023-04-24T05:01:19;7.17;;;4.57;;
52450;SDS011;38366;53.176;6.540;2023-04-24T05:03:45;9.00;;;5.82;;
52450;SDS011;38366;53.176;6.540;2023-04-24T05:06:10;8.50;;;5.72;;
52450;SDS011;38366;53.176;6.540;2023-04-24T05:08:36;7.47;;;5.20;;
52450;SDS011;38366;53.176;6.540;2023-04-24T05:11:01;6.77;;;4.10;;
52450;SDS011;38366;53.176;6.540;2023-04-24T05:13:27;7.68;;;5.05;;
52450;SDS011;38366;53.176;6.540;2023-04-24T05:15:53;6.60;;;4.28;;
52450;SDS011;38366;53.176;6.540;2023-04-24T05:18:19;5.50;;;3.35;;
52450;SDS011;38366;53.176;6.540;2023-04-24T05:20:44;6.70;;;4.00;;
52450;SDS011;38366;53.176;6.540;2023-04-24T05:23:10;6.72;;;4.10;;
52450;SDS011;38366;53.176;6.540;2023-04-24T05:28:03;7.28;;;4.15;;
52450;SDS011;38366;53.176;6.540;2023-04-24T05:32:55;5.32;;;2.70;;
52450;SDS011;38366;53.176;6.540;2023-04-24T05:35:21;5.00;;;2.43;;
52450;SDS011;38366;53.176;6.540;2023-04-24T05:37:47;3.00;;;1.93;;
52450;SDS011;38366;53.176;6.540;2023-04-24T05:40:12;3.05;;;1.85;;
52450;SDS011;38366;53.176;6.540;2023-04-24T05:42:38;3.72;;;1.90;;
52450;SDS011;38366;53.176;6.540;2023-04-24T05:45:04;2.97;;;1.88;;
52450;SDS011;38366;53.176;6.540;2023-04-24T05:47:30;3.30;;;2.00;;
52450;SDS011;38366;53.176;6.540;2023-04-24T05:49:56;3.50;;;1.80;;
52450;SDS011;38366;53.176;6.540;2023-04-24T05:52:22;3.47;;;1.93;;
52450;SDS011;38366;53.176;6.540;2023-04-24T05:54:47;3.85;;;2.08;;
52450;SDS011;38366;53.176;6.540;2023-04-24T05:57:13;5.15;;;2.40;;
52450;SDS011;38366;53.176;6.540;2023-04-24T05:59:40;3.40;;;2.40;;
52450;SDS011;38366;53.176;6.540;2023-04-24T06:04:31;3.20;;;1.77;;
52450;SDS011;38366;53.176;6.540;2023-04-24T06:06:58;5.05;;;2.40;;
52450;SDS011;38366;53.176;6.540;2023-04-24T06:09:24;4.63;;;2.22;;
52450;SDS011;38366;53.176;6.540;2023-04-24T06:14:18;5.75;;;2.53;;
52450;SDS011;38366;53.176;6.540;2023-04-24T06:16:44;4.03;;;2.60;;
52450;SDS011;38366;53.176;6.540;2023-04-24T06:19:10;5.97;;;2.60;;
52450;SDS011;38366;53.176;6.540;2023-04-24T06:21:36;4.00;;;2.80;;
52450;SDS011;38366;53.176;6.540;2023-04-24T06:24:01;5.50;;;2.85;;
52450;SDS011;38366;53.176;6.540;2023-04-24T06:26:28;7.70;;;3.33;;
52450;SDS011;38366;53.176;6.540;2023-04-24T06:28:54;7.93;;;3.53;;
52450;SDS011;38366;53.176;6.540;2023-04-24T06:31:20;6.75;;;4.43;;
52450;SDS011;38366;53.176;6.540;2023-04-24T06:33:46;7.47;;;4.55;;
52450;SDS011;38366;53.176;6.540;2023-04-24T06:36:13;6.82;;;4.15;;
52450;SDS011;38366;53.176;6.540;2023-04-24T06:38:39;7.55;;;4.50;;
52450;SDS011;38366;53.176;6.540;2023-04-24T06:41:05;7.13;;;4.40;;
52450;SDS011;38366;53.176;6.540;2023-04-24T06:43:31;14.80;;;5.20;;
52450;SDS011;38366;53.176;6.540;2023-04-24T06:45:57;6.40;;;4.10;;
52450;SDS011;38366;53.176;6.540;2023-04-24T06:48:23;9.70;;;3.85;;
52450;SDS011;38366;53.176;6.540;2023-04-24T06:50:50;7.10;;;4.45;;
52450;SDS011;38366;53.176;6.540;2023-04-24T06:53:16;8.57;;;3.97;;
52450;SDS011;38366;53.176;6.540;2023-04-24T06:55:41;6.72;;;3.75;;
52450;SDS011;38366;53.176;6.540;2023-04-24T07:00:34;5.20;;;2.88;;
52450;SDS011;38366;53.176;6.540;2023-04-24T07:03:00;4.57;;;2.40;;
52450;SDS011;38366;53.176;6.540;2023-04-24T07:05:25;3.55;;;1.88;;
52450;SDS011;38366;53.176;6.540;2023-04-24T07:07:51;4.53;;;2.00;;
52450;SDS011;38366;53.176;6.540;2023-04-24T07:10:17;3.67;;;2.13;;
52450;SDS011;38366;53.176;6.540;2023-04-24T07:12:43;5.03;;;1.70;;
52450;SDS011;38366;53.176;6.540;2023-04-24T07:15:09;5.72;;;1.95;;
52450;SDS011;38366;53.176;6.540;2023-04-24T07:17:35;5.43;;;2.03;;
52450;SDS011;38366;53.176;6.540;2023-04-24T07:20:03;2.28;;;1.50;;
52450;SDS011;38366;53.176;6.540;2023-04-24T07:22:30;4.75;;;1.77;;
52450;SDS011;38366;53.176;6.540;2023-04-24T07:24:56;3.60;;;1.92;;
52450;SDS011;38366;53.176;6.540;2023-04-24T07:27:21;6.37;;;2.37;;
52450;SDS011;38366;53.176;6.540;2023-04-24T07:29:47;5.40;;;1.83;;
52450;SDS011;38366;53.176;6.540;2023-04-24T07:32:13;3.90;;;1.80;;
52450;SDS011;38366;53.176;6.540;2023-04-24T07:34:38;5.63;;;1.90;;
52450;SDS011;38366;53.176;6.540;2023-04-24T07:37:05;7.10;;;2.05;;
52450;SDS011;38366;53.176;6.540;2023-04-24T07:39:31;6.53;;;2.10;;
52450;SDS011;38366;53.176;6.540;2023-04-24T07:41:56;3.53;;;1.95;;
52450;SDS011;38366;53.176;6.540;2023-04-24T07:44:24;5.97;;;2.38;;
52450;SDS011;38366;53.176;6.540;2023-04-24T07:46:50;3.58;;;1.88;;
52450;SDS011;38366;53.176;6.540;2023-04-24T07:49:15;3.70;;;1.92;;
52450;SDS011;38366;53.176;6.540;2023-04-24T07:51:41;3.90;;;1.80;;
52450;SDS011;38366;53.176;6.540;2023-04-24T07:54:07;4.03;;;1.90;;
52450;SDS011;38366;53.176;6.540;2023-04-24T07:56:33;6.00;;;2.15;;
52450;SDS011;38366;53.176;6.540;2023-04-24T07:58:59;4.03;;;2.80;;
52450;SDS011;38366;53.176;6.540;2023-04-24T08:01:26;4.72;;;3.20;;
52450;SDS011;38366;53.176;6.540;2023-04-24T08:03:52;12.43;;;4.32;;
52450;SDS011;38366;53.176;6.540;2023-04-24T08:06:17;13.00;;;5.33;;
52450;SDS011;38366;53.176;6.540;2023-04-24T08:08:43;10.18;;;4.88;;
52450;SDS011;38366;53.176;6.540;2023-04-24T08:11:09;13.68;;;7.03;;
52450;SDS011;38366;53.176;6.540;2023-04-24T08:13:35;12.65;;;6.10;;
52450;SDS011;38366;53.176;6.540;2023-04-24T08:16:00;16.97;;;7.10;;
52450;SDS011;38366;53.176;6.540;2023-04-24T08:18:26;15.23;;;8.23;;
52450;SDS011;38366;53.176;6.540;2023-04-24T08:20:52;21.13;;;8.48;;
52450;SDS011;38366;53.176;6.540;2023-04-24T08:23:18;15.73;;;8.15;;
52450;SDS011;38366;53.176;6.540;2023-04-24T08:25:44;18.43;;;9.13;;
52450;SDS011;38366;53.176;6.540;2023-04-24T08:28:09;25.70;;;8.73;;
52450;SDS011;38366;53.176;6.540;2023-04-24T08:30:36;18.92;;;8.73;;
52450;SDS011;38366;53.176;6.540;2023-04-24T08:33:03;17.65;;;9.07;;
52450;SDS011;38366;53.176;6.540;2023-04-24T08:35:29;20.15;;;9.32;;
52450;SDS011;38366;53.176;6.540;2023-04-24T08:37:54;19.20;;;8.65;;
52450;SDS011;38366;53.176;6.540;2023-04-24T08:40:22;18.63;;;8.95;;
52450;SDS011;38366;53.176;6.540;2023-04-24T08:42:54;18.95;;;8.43;;
52450;SDS011;38366;53.176;6.540;2023-04-24T08:45:21;17.52;;;8.88;;
52450;SDS011;38366;53.176;6.540;2023-04-24T08:47:48;18.05;;;8.57;;
52450;SDS011;38366;53.176;6.540;2023-04-24T08:50:14;20.80;;;7.72;;
52450;SDS011;38366;53.176;6.540;2023-04-24T08:52:41;16.92;;;8.65;;
52450;SDS011;38366;53.176;6.540;2023-04-24T08:55:08;15.65;;;7.95;;
52450;SDS011;38366;53.176;6.540;2023-04-24T08:57:34;14.50;;;7.07;;
52450;SDS011;38366;53.176;6.540;2023-04-24T09:00:01;19.27;;;8.32;;
52450;SDS011;38366;53.176;6.540;2023-04-24T09:02:27;20.83;;;8.65;;
52450;SDS011;38366;53.176;6.540;2023-04-24T09:04:54;16.10;;;8.27;;
52450;SDS011;38366;53.176;6.540;2023-04-24T09:07:22;16.58;;;8.05;;
52450;SDS011;38366;53.176;6.540;2023-04-24T09:09:50;17.10;;;8.50;;
52450;SDS011;38366;53.176;6.540;2023-04-24T09:12:17;20.83;;;9.15;;
52450;SDS011;38366;53.176;6.540;2023-04-24T09:14:44;17.13;;;7.95;;
52450;SDS011;38366;53.176;6.540;2023-04-24T09:17:10;17.27;;;7.35;;
52450;SDS011;38366;53.176;6.540;2023-04-24T09:22:06;13.82;;;6.32;;
52450;SDS011;38366;53.176;6.540;2023-04-24T09:24:34;12.50;;;6.95;;
52450;SDS011;38366;53.176;6.540;2023-04-24T09:27:00;14.35;;;5.90;;
52450;SDS011;38366;53.176;6.540;2023-04-24T09:29:26;9.13;;;4.68;;
52450;SDS011;38366;53.176;6.540;2023-04-24T09:34:22;10.85;;;5.10;;
52450;SDS011;38366;53.176;6.540;2023-04-24T09:36:49;13.50;;;5.45;;
52450;SDS011;38366;53.176;6.540;2023-04-24T09:39:15;21.33;;;5.65;;
52450;SDS011;38366;53.176;6.540;2023-04-24T09:44:28;14.87;;;6.37;;
52450;SDS011;38366;53.176;6.540;2023-04-24T09:49:27;12.52;;;4.60;;
52450;SDS011;38366;53.176;6.540;2023-04-24T09:52:05;9.27;;;4.10;;
52450;SDS011;38366;53.176;6.540;2023-04-24T09:54:35;9.23;;;4.07;;
52450;SDS011;38366;53.176;6.540;2023-04-24T09:57:03;13.43;;;4.50;;
52450;SDS011;38366;53.176;6.540;2023-04-24T09:59:32;14.73;;;4.80;;
52450;SDS011;38366;53.176;6.540;2023-04-24T10:01:58;9.23;;;4.15;;
52450;SDS011;38366;53.176;6.540;2023-04-24T10:04:28;15.18;;;3.97;;
52450;SDS011;38366;53.176;6.540;2023-04-24T10:06:55;11.02;;;4.53;;
52450;SDS011;38366;53.176;6.540;2023-04-24T10:09:22;7.60;;;3.83;;
52450;SDS011;38366;53.176;6.540;2023-04-24T10:11:50;9.55;;;3.33;;
52450;SDS011;38366;53.176;6.540;2023-04-24T10:14:21;6.00;;;2.83;;
52450;SDS011;38366;53.176;6.540;2023-04-24T10:16:48;8.90;;;2.67;;
52450;SDS011;38366;53.176;6.540;2023-04-24T10:19:15;6.25;;;2.65;;
52450;SDS011;38366;53.176;6.540;2023-04-24T10:21:43;6.40;;;2.15;;
52450;SDS011;38366;53.176;6.540;2023-04-24T10:24:13;4.78;;;2.00;;
52450;SDS011;38366;53.176;6.540;2023-04-24T10:26:41;8.45;;;2.40;;
52450;SDS011;38366;53.176;6.540;2023-04-24T10:29:06;5.28;;;2.65;;
52450;SDS011;38366;53.176;6.540;2023-04-24T10:31:36;6.32;;;2.53;;
52450;SDS011;38366;53.176;6.540;2023-04-24T10:34:03;4.05;;;1.98;;
52450;SDS011;38366;53.176;6.540;2023-04-24T10:36:30;6.38;;;2.13;;
52450;SDS011;38366;53.176;6.540;2023-04-24T10:38:59;9.32;;;2.00;;
52450;SDS011;38366;53.176;6.540;2023-04-24T10:41:27;8.07;;;2.10;;
52450;SDS011;38366;53.176;6.540;2023-04-24T10:44:04;7.88;;;2.03;;
52450;SDS011;38366;53.176;6.540;2023-04-24T10:46:31;7.55;;;2.42;;
52450;SDS011;38366;53.176;6.540;2023-04-24T10:48:57;4.38;;;2.00;;
52450;SDS011;38366;53.176;6.540;2023-04-24T10:51:24;5.65;;;1.90;;
52450;SDS011;38366;53.176;6.540;2023-04-24T10:54:27;5.70;;;1.85;;
52450;SDS011;38366;53.176;6.540;2023-04-24T10:59:48;6.25;;;1.92;;
52450;SDS011;38366;53.176;6.540;2023-04-24T11:02:37;9.52;;;1.90;;
52450;SDS011;38366;53.176;6.540;2023-04-24T11:05:04;9.07;;;1.88;;
52450;SDS011;38366;53.176;6.540;2023-04-24T11:07:39;9.00;;;2.05;;
52450;SDS011;38366;53.176;6.540;2023-04-24T11:10:37;6.82;;;1.58;;
52450;SDS011;38366;53.176;6.540;2023-04-24T11:13:10;5.10;;;1.48;;
52450;SDS011;38366;53.176;6.540;2023-04-24T11:15:40;4.95;;;1.40;;
52450;SDS011;38366;53.176;6.540;2023-04-24T11:18:12;8.82;;;2.45;;
52450;SDS011;38366;53.176;6.540;2023-04-24T11:20:41;7.45;;;1.60;;
52450;SDS011;38366;53.176;6.540;2023-04-24T11:23:08;6.35;;;1.20;;
52450;SDS011;38366;53.176;6.540;2023-04-24T11:25:35;4.53;;;1.23;;
52450;SDS011;38366;53.176;6.540;2023-04-24T11:28:04;7.55;;;1.30;;
52450;SDS011;38366;53.176;6.540;2023-04-24T11:30:31;4.10;;;1.10;;
52450;SDS011;38366;53.176;6.540;2023-04-24T11:33:05;5.85;;;1.30;;
52450;SDS011;38366;53.176;6.540;2023-04-24T11:35:34;4.55;;;1.60;;
52450;SDS011;38366;53.176;6.540;2023-04-24T11:38:04;6.40;;;1.30;;
52450;SDS011;38366;53.176;6.540;2023-04-24T11:40:31;3.60;;;1.10;;
52450;SDS011;38366;53.176;6.540;2023-04-24T11:42:59;5.20;;;1.20;;
52450;SDS011;38366;53.176;6.540;2023-04-24T11:45:28;4.75;;;1.40;;
52450;SDS011;38366;53.176;6.540;2023-04-24T11:47:55;2.50;;;1.10;;
52450;SDS011;38366;53.176;6.540;2023-04-24T11:50:22;3.75;;;1.20;;
52450;SDS011;38366;53.176;6.540;2023-04-24T11:52:50;3.65;;;1.00;;
52450;SDS011;38366;53.176;6.540;2023-04-24T11:57:48;10.90;;;1.77;;
52450;SDS011;38366;53.176;6.540;2023-04-24T12:02:41;8.38;;;1.25;;
52450;SDS011;38366;53.176;6.540;2023-04-24T12:05:07;5.75;;;1.33;;
52450;SDS011;38366;53.176;6.540;2023-04-24T12:07:40;5.90;;;1.67;;
52450;SDS011;38366;53.176;6.540;2023-04-24T12:10:09;5.55;;;1.00;;
52450;SDS011;38366;53.176;6.540;2023-04-24T12:12:35;6.60;;;1.30;;
52450;SDS011;38366;53.176;6.540;2023-04-24T12:15:01;7.40;;;1.70;;
52450;SDS011;38366;53.176;6.540;2023-04-24T12:17:32;6.95;;;1.40;;
52450;SDS011;38366;53.176;6.540;2023-04-24T12:25:15;3.17;;;1.50;;
52450;SDS011;38366;53.176;6.540;2023-04-24T12:27:43;2.67;;;0.77;;
52450;SDS011;38366;53.176;6.540;2023-04-24T12:30:18;5.15;;;1.10;;
52450;SDS011;38366;53.176;6.540;2023-04-24T12:32:48;3.97;;;0.90;;
52450;SDS011;38366;53.176;6.540;2023-04-24T12:35:21;3.10;;;0.85;;
52450;SDS011;38366;53.176;6.540;2023-04-24T12:37:47;2.78;;;0.80;;
52450;SDS011;38366;53.176;6.540;2023-04-24T12:40:13;2.47;;;0.90;;
52450;SDS011;38366;53.176;6.540;2023-04-24T12:42:58;4.05;;;1.40;;
52450;SDS011;38366;53.176;6.540;2023-04-24T12:45:23;2.85;;;0.68;;
52450;SDS011;38366;53.176;6.540;2023-04-24T12:47:50;2.95;;;1.08;;
52450;SDS011;38366;53.176;6.540;2023-04-24T12:50:16;3.80;;;0.80;;
52450;SDS011;38366;53.176;6.540;2023-04-24T12:52:42;3.88;;;1.02;;
52450;SDS011;38366;53.176;6.540;2023-04-24T12:55:08;2.03;;;0.77;;
52450;SDS011;38366;53.176;6.540;2023-04-24T12:57:35;3.88;;;0.70;;
52450;SDS011;38366;53.176;6.540;2023-04-24T13:00:02;3.13;;;0.88;;
52450;SDS011;38366;53.176;6.540;2023-04-24T13:02:29;2.63;;;1.23;;
52450;SDS011;38366;53.176;6.540;2023-04-24T13:04:56;3.60;;;0.65;;
52450;SDS011;38366;53.176;6.540;2023-04-24T13:07:25;3.30;;;0.70;;
52450;SDS011;38366;53.176;6.540;2023-04-24T13:09:52;5.53;;;0.88;;
52450;SDS011;38366;53.176;6.540;2023-04-24T13:12:19;4.18;;;0.75;;
52450;SDS011;38366;53.176;6.540;2023-04-24T13:14:45;3.97;;;0.93;;
52450;SDS011;38366;53.176;6.540;2023-04-24T13:17:11;5.45;;;0.93;;
52450;SDS011;38366;53.176;6.540;2023-04-24T13:19:42;3.97;;;1.13;;
52450;SDS011;38366;53.176;6.540;2023-04-24T13:22:09;2.72;;;0.80;;
52450;SDS011;38366;53.176;6.540;2023-04-24T13:24:36;6.82;;;1.52;;
52450;SDS011;38366;53.176;6.540;2023-04-24T13:27:02;3.53;;;0.70;;
52450;SDS011;38366;53.176;6.540;2023-04-24T13:29:28;3.60;;;0.80;;
52450;SDS011;38366;53.176;6.540;2023-04-24T13:31:54;3.05;;;0.70;;
52450;SDS011;38366;53.176;6.540;2023-04-24T13:34:21;3.25;;;0.52;;
52450;SDS011;38366;53.176;6.540;2023-04-24T13:36:50;2.15;;;0.40;;
52450;SDS011;38366;53.176;6.540;2023-04-24T13:39:20;4.18;;;0.60;;
52450;SDS011;38366;53.176;6.540;2023-04-24T13:41:46;4.28;;;0.60;;
52450;SDS011;38366;53.176;6.540;2023-04-24T13:44:13;4.38;;;0.60;;
52450;SDS011;38366;53.176;6.540;2023-04-24T13:46:40;3.28;;;0.60;;
52450;SDS011;38366;53.176;6.540;2023-04-24T13:49:06;3.80;;;0.88;;
52450;SDS011;38366;53.176;6.540;2023-04-24T13:51:33;2.65;;;0.50;;
52450;SDS011;38366;53.176;6.540;2023-04-24T13:53:58;1.70;;;0.55;;
52450;SDS011;38366;53.176;6.540;2023-04-24T13:56:24;5.82;;;0.88;;
52450;SDS011;38366;53.176;6.540;2023-04-24T13:58:51;2.20;;;0.60;;
52450;SDS011;38366;53.176;6.540;2023-04-24T14:01:16;3.88;;;0.65;;
52450;SDS011;38366;53.176;6.540;2023-04-24T14:03:42;4.70;;;1.15;;
52450;SDS011;38366;53.176;6.540;2023-04-24T14:06:08;6.60;;;0.68;;
52450;SDS011;38366;53.176;6.540;2023-04-24T14:08:34;5.03;;;0.90;;
52450;SDS011;38366;53.176;6.540;2023-04-24T14:11:00;4.45;;;1.27;;
52450;SDS011;38366;53.176;6.540;2023-04-24T14:13:26;3.92;;;1.35;;
52450;SDS011;38366;53.176;6.540;2023-04-24T14:15:52;3.65;;;1.17;;
52450;SDS011;38366;53.176;6.540;2023-04-24T14:18:18;6.20;;;1.08;;
52450;SDS011;38366;53.176;6.540;2023-04-24T14:20:44;5.22;;;1.17;;
52450;SDS011;38366;53.176;6.540;2023-04-24T14:23:10;9.07;;;1.20;;
52450;SDS011;38366;53.176;6.540;2023-04-24T14:25:36;9.60;;;1.73;;
52450;SDS011;38366;53.176;6.540;2023-04-24T14:28:01;9.90;;;1.40;;
52450;SDS011;38366;53.176;6.540;2023-04-24T14:30:27;6.25;;;1.40;;
52450;SDS011;38366;53.176;6.540;2023-04-24T14:32:53;7.50;;;1.85;;
52450;SDS011;38366;53.176;6.540;2023-04-24T14:35:18;7.27;;;1.40;;
52450;SDS011;38366;53.176;6.540;2023-04-24T14:37:44;5.88;;;1.45;;
52450;SDS011;38366;53.176;6.540;2023-04-24T14:40:10;7.00;;;1.30;;
52450;SDS011;38366;53.176;6.540;2023-04-24T14:42:36;6.10;;;1.33;;
52450;SDS011;38366;53.176;6.540;2023-04-24T14:45:02;5.70;;;1.50;;
52450;SDS011;38366;53.176;6.540;2023-04-24T14:47:27;4.57;;;1.15;;
52450;SDS011;38366;53.176;6.540;2023-04-24T14:52:19;5.75;;;1.55;;
52450;SDS011;38366;53.176;6.540;2023-04-24T14:54:45;12.68;;;1.90;;
52450;SDS011;38366;53.176;6.540;2023-04-24T14:57:11;5.27;;;1.73;;
52450;SDS011;38366;53.176;6.540;2023-04-24T14:59:37;7.93;;;2.20;;
52450;SDS011;38366;53.176;6.540;2023-04-24T15:02:02;9.73;;;1.98;;
52450;SDS011;38366;53.176;6.540;2023-04-24T15:04:28;6.72;;;1.70;;
52450;SDS011;38366;53.176;6.540;2023-04-24T15:06:55;7.18;;;1.63;;
52450;SDS011;38366;53.176;6.540;2023-04-24T15:09:22;5.38;;;1.30;;
52450;SDS011;38366;53.176;6.540;2023-04-24T15:11:50;6.13;;;1.75;;
52450;SDS011;38366;53.176;6.540;2023-04-24T15:14:16;5.60;;;1.48;;
52450;SDS011;38366;53.176;6.540;2023-04-24T15:16:42;5.50;;;2.05;;
52450;SDS011;38366;53.176;6.540;2023-04-24T15:19:08;8.32;;;1.90;;
52450;SDS011;38366;53.176;6.540;2023-04-24T15:21:37;6.53;;;1.85;;
52450;SDS011;38366;53.176;6.540;2023-04-24T15:24:05;7.28;;;1.73;;
52450;SDS011;38366;53.176;6.540;2023-04-24T15:26:31;7.38;;;1.98;;
52450;SDS011;38366;53.176;6.540;2023-04-24T15:28:56;8.90;;;2.00;;